Thunder radar more information blitzortung!


avis per Pluja more information rain snow radar


Visita la nostra xarxa de llocs de meteo:

Template documentation
and downloads

And another site



Rain From: 15-11-2018 14:00 Until: 23:59 warning for: Rain Level: Orange info button

Pagina Historial Weather Underground text

Diari Resum Agost 4, 2017 Unitats:  Imperial    Mètric   Tant
« Previous Dia
SegĂźent Dia »
Diari Setmana Mensual Anual Personalitzada
  Maxima: Minima: Media:
Temperatura: TemperatureC °F 22.3 °F 31.1 °F
Punt de rosada: DewpointC °F 12.2 °F 17 °F
Humitat: Humidity % 28 % 45 %
Wind Speed: WindSpeedKMH mph 0.0 mph 5.9 mph
RĂ fegues de vent: WindSpeedGustKMH mph - -
Vent:- - South
Pression baro: PressurehPa in 1010.0 in -
Precipitacions: 0.0 in    
Historical Graphs
 
 
Dades de taula per Agost 4, 2017
Temps Temperatura Punt de rosada Pression baro Vent Wind Speed RĂ fegues de vent Humitat Rainfall Rate (Hourly)
TemperatureC °F DewpointC °F PressurehPa in Calm     Humidity % HourlyPrecipMM in
00:02 29.2 °F 12.2 °F 1011.7 in Calm     35 % 0.0 in
00:05 23.3 °F 16.3 °F 1013.8 in Calm     65 % 0.0 in
00:07 29.0 °F 12.4 °F 1011.7 in Calm     36 % 0.0 in
00:12 28.8 °F 12.7 °F 1011.7 in Calm     37 % 0.0 in
00:15 23.3 °F 16.1 °F 1013.8 in Calm     64 % 0.0 in
00:17 28.6 °F 12.5 °F 1012.8 in Calm     37 % 0.0 in
00:25 23.2 °F 16.0 °F 1013.8 in Calm     64 % 0.0 in
00:35 23.2 °F 16.0 °F 1012.8 in Calm     64 % 0.0 in
00:45 23.1 °F 16.2 °F 1012.8 in Calm     65 % 0.0 in
00:55 22.9 °F 15.9 °F 1013.8 in NW 1.6 mph 1.6 mph 65 % 0.0 in
01:05 22.8 °F 16.1 °F 1013.8 in Calm   1.6 mph 66 % 0.0 in
01:15 22.7 °F 16.0 °F 1013.8 in Calm     66 % 0.0 in
01:25 22.6 °F 15.7 °F 1013.8 in Calm   1.6 mph 65 % 0.0 in
01:35 22.4 °F 15.7 °F 1013.8 in Calm     66 % 0.0 in
01:45 22.3 °F 15.7 °F 1013.8 in WNW 1.6 mph 1.6 mph 66 % 0.0 in
01:55 22.3 °F 15.7 °F 1013.8 in NNW 1.6 mph 3.2 mph 66 % 0.0 in
02:05 22.3 °F 15.7 °F 1013.8 in North 1.6 mph 1.6 mph 66 % 0.0 in
02:15 22.3 °F 15.9 °F 1013.8 in Calm   3.2 mph 67 % 0.0 in
02:25 22.5 °F 15.8 °F 1013.8 in Calm   1.6 mph 66 % 0.0 in
02:35 22.8 °F 15.9 °F 1013.8 in Calm   1.6 mph 65 % 0.0 in
02:45 23.2 °F 16.0 °F 1013.8 in Calm   1.6 mph 64 % 0.0 in
02:55 23.1 °F 15.9 °F 1013.8 in East 1.6 mph 1.6 mph 64 % 0.0 in
03:05 22.8 °F 15.6 °F 1013.8 in SW 3.2 mph 3.2 mph 64 % 0.0 in
03:15 23.4 °F 16.2 °F 1013.8 in Calm   3.2 mph 64 % 0.0 in
03:25 24.0 °F 16.3 °F 1014.8 in SE 1.6 mph 3.2 mph 62 % 0.0 in
03:35 24.4 °F 16.1 °F 1013.8 in East 1.6 mph 3.2 mph 60 % 0.0 in
03:45 25.1 °F 16.5 °F 1013.8 in East 1.6 mph 3.2 mph 59 % 0.0 in
03:55 25.4 °F 16.3 °F 1013.8 in ESE 1.6 mph 1.6 mph 57 % 0.0 in
04:05 26.2 °F 16.7 °F 1013.8 in Calm   3.2 mph 56 % 0.0 in
04:15 26.8 °F 17.0 °F 1013.8 in SE 1.6 mph 1.6 mph 55 % 0.0 in
04:25 27.1 °F 17.0 °F 1013.8 in SE 1.6 mph 3.2 mph 54 % 0.0 in
04:35 27.9 °F 17.1 °F 1013.8 in SSE 1.6 mph 3.2 mph 52 % 0.0 in
04:45 28.1 °F 17.3 °F 1013.8 in SSW 1.6 mph 1.6 mph 52 % 0.0 in
04:55 28.3 °F 17.5 °F 1013.8 in SW 1.6 mph 3.2 mph 52 % 0.0 in
05:05 29.5 °F 18.0 °F 1013.8 in South 1.6 mph 3.2 mph 50 % 0.0 in
10:16 30.3 °F 18.1 °F 1013.8 in ESE 4.2 mph 4.2 mph 48 % 0.0 in
10:21 30.7 °F 18.4 °F 1013.8 in ESE 1.9 mph   48 % 0.0 in
10:26 30.6 °F 18.0 °F 1013.8 in WNW 3.7 mph 3.7 mph 47 % 0.0 in
10:31 31.4 °F 18.4 °F 1013.8 in SSE 5.0 mph 5.0 mph 46 % 0.0 in
10:36 31.8 °F 18.8 °F 1014.8 in ESE 3.7 mph 3.7 mph 46 % 0.0 in
10:41 32.1 °F 18.7 °F 1014.8 in ESE 3.7 mph 3.7 mph 45 % 0.0 in
10:46 32.2 °F 18.8 °F 1014.8 in SSE 2.6 mph 2.6 mph 45 % 0.0 in
10:51 32.8 °F 18.9 °F 1013.8 in SW 5.6 mph 5.6 mph 44 % 0.0 in
10:56 33.1 °F 18.8 °F 1013.8 in SSW 6.1 mph 6.1 mph 43 % 0.0 in
11:01 33.3 °F 19.0 °F 1013.8 in SW 3.7 mph 3.7 mph 43 % 0.0 in
11:06 33.9 °F 19.2 °F 1013.8 in SSE 1.9 mph 1.9 mph 42 % 0.0 in
11:11 33.9 °F 19.2 °F 1013.8 in ESE 5.6 mph 5.6 mph 42 % 0.0 in
11:16 33.7 °F 19.0 °F 1013.8 in SSW 7.4 mph 7.4 mph 42 % 0.0 in
11:21 33.6 °F 18.6 °F 1013.8 in SW 5.6 mph 5.6 mph 41 % 0.0 in
11:26 34.1 °F 18.6 °F 1013.8 in SSW 7.4 mph 7.4 mph 40 % 0.0 in
11:27 34.2 °F 19.1 °F 1013.8 in SW 5.8 mph 5.8 mph 41 % 0.0 in
11:32 34.0 °F 18.5 °F 1013.8 in West 7.4 mph 7.4 mph 40 % 0.0 in
11:37 34.6 °F 18.6 °F 1013.8 in ESE 1.9 mph 1.9 mph 39 % 0.0 in
11:42 34.8 °F 18.4 °F 1013.8 in SW 9.3 mph 9.3 mph 38 % 0.0 in
11:47 35.1 °F 17.8 °F 1013.8 in South 7.4 mph 7.4 mph 36 % 0.0 in
11:52 35.0 °F 17.7 °F 1013.8 in SW 10.3 mph 10.3 mph 36 % 0.0 in
11:57 34.9 °F 16.7 °F 1013.8 in South 9.3 mph 9.3 mph 34 % 0.0 in
12:02 35.8 °F 17.9 °F 1013.8 in West 5.3 mph 5.3 mph 35 % 0.0 in
12:07 35.5 °F 17.2 °F 1013.8 in WSW 7.4 mph 7.4 mph 34 % 0.0 in
12:12 35.4 °F 16.7 °F 1013.8 in SSW 14.8 mph 14.8 mph 33 % 0.0 in
12:17 35.7 °F 17.4 °F 1013.8 in ESE 5.6 mph 5.6 mph 34 % 0.0 in
12:22 36.6 °F 18.2 °F 1013.8 in SSW 10.3 mph 10.3 mph 34 % 0.0 in
12:27 36.0 °F 17.2 °F 1013.8 in SW 7.4 mph 7.4 mph 33 % 0.0 in
12:32 36.2 °F 17.4 °F 1013.8 in SW 7.4 mph 7.4 mph 33 % 0.0 in
12:37 36.7 °F 17.3 °F 1013.8 in WSW 5.6 mph 5.6 mph 32 % 0.0 in
12:42 37.1 °F 17.7 °F 1013.8 in WSW 6.1 mph 6.1 mph 32 % 0.0 in
12:47 36.7 °F 17.3 °F 1012.8 in South 5.6 mph 5.6 mph 32 % 0.0 in
12:52 36.9 °F 17.5 °F 1012.8 in WNW 9.3 mph 9.3 mph 32 % 0.0 in
12:57 37.6 °F 18.1 °F 1012.8 in SSW 4.2 mph 4.2 mph 32 % 0.0 in
13:02 36.9 °F 17.0 °F 1011.7 in SW 9.3 mph 9.3 mph 31 % 0.0 in
13:07 36.9 °F 17.0 °F 1011.7 in South 5.6 mph 5.6 mph 31 % 0.0 in
13:12 37.5 °F 17.0 °F 1011.7 in SW 11.1 mph 11.1 mph 30 % 0.0 in
13:17 37.3 °F 16.8 °F 1011.7 in SSW 13.0 mph 13.0 mph 30 % 0.0 in
13:22 37.5 °F 17.0 °F 1011.7 in SW 11.1 mph 11.1 mph 30 % 0.0 in
13:27 37.2 °F 16.7 °F 1011.7 in South 5.6 mph 5.6 mph 30 % 0.0 in
13:32 37.9 °F 17.3 °F 1011.7 in SSW 11.1 mph 11.1 mph 30 % 0.0 in
13:37 37.7 °F 17.2 °F 1011.7 in WSW 7.4 mph 7.4 mph 30 % 0.0 in
13:42 38.1 °F 17.5 °F 1011.7 in WSW 5.6 mph 5.6 mph 30 % 0.0 in
13:47 38.2 °F 17.6 °F 1010.7 in West 11.9 mph 11.9 mph 30 % 0.0 in
13:52 37.6 °F 16.6 °F 1010.7 in WSW 9.3 mph 9.3 mph 29 % 0.0 in
13:57 38.3 °F 17.1 °F 1010.7 in SE 9.3 mph 9.3 mph 29 % 0.0 in
14:02 38.3 °F 17.1 °F 1011.7 in SW 11.1 mph 11.1 mph 29 % 0.0 in
14:07 38.0 °F 16.9 °F 1011.7 in SW 13.0 mph 13.0 mph 29 % 0.0 in
14:12 38.0 °F 16.9 °F 1011.7 in SW 9.3 mph 9.3 mph 29 % 0.0 in
14:17 38.1 °F 16.9 °F 1011.7 in WSW 7.6 mph 7.6 mph 29 % 0.0 in
14:22 37.8 °F 16.7 °F 1011.7 in South 9.3 mph 9.3 mph 29 % 0.0 in
14:27 38.3 °F 17.1 °F 1011.7 in SW 7.4 mph 7.4 mph 29 % 0.0 in
14:32 38.4 °F 17.2 °F 1011.7 in SSW 9.3 mph 9.3 mph 29 % 0.0 in
14:37 38.0 °F 16.3 °F 1011.7 in South 5.6 mph 5.6 mph 28 % 0.0 in
14:42 38.5 °F 17.3 °F 1011.7 in SW 9.3 mph 9.3 mph 29 % 0.0 in
14:47 38.9 °F 17.7 °F 1011.7 in West 14.8 mph 14.8 mph 29 % 0.0 in
14:48 38.9 °F 17.7 °F 1011.7 in West 14.8 mph 14.8 mph 29 % 0.0 in
14:53 38.5 °F 16.8 °F 1011.7 in SSW 11.1 mph 11.1 mph 28 % 0.0 in
14:58 38.0 °F 16.3 °F 1011.7 in SW 13.0 mph 13.0 mph 28 % 0.0 in
15:03 38.2 °F 16.5 °F 1011.7 in SE 9.3 mph 9.3 mph 28 % 0.0 in
15:08 37.8 °F 16.2 °F 1011.7 in West 18.5 mph 18.5 mph 28 % 0.0 in
15:13 37.7 °F 16.1 °F 1011.7 in SW 16.7 mph 16.7 mph 28 % 0.0 in
15:18 38.4 °F 16.7 °F 1010.7 in SSW 7.4 mph 7.4 mph 28 % 0.0 in
15:23 38.5 °F 16.8 °F 1010.7 in SSE 9.3 mph 9.3 mph 28 % 0.0 in
15:28 38.3 °F 16.6 °F 1010.7 in SSW 14.8 mph 14.8 mph 28 % 0.0 in
15:33 38.3 °F 16.6 °F 1010.7 in SW 11.1 mph 11.1 mph 28 % 0.0 in
15:38 37.8 °F 16.2 °F 1010.7 in SW 14.8 mph 14.8 mph 28 % 0.0 in
15:43 38.0 °F 16.3 °F 1010.7 in SW 9.3 mph 10.0 mph 28 % 0.0 in
15:48 37.6 °F 16.0 °F 1010.7 in West 16.7 mph 16.7 mph 28 % 0.0 in
15:53 37.8 °F 16.2 °F 1010.7 in SW 9.3 mph 9.3 mph 28 % 0.0 in
15:58 37.6 °F 16.0 °F 1010.7 in SW 16.7 mph 16.7 mph 28 % 0.0 in
16:03 38.0 °F 16.3 °F 1010.7 in SW 13.0 mph 13.0 mph 28 % 0.0 in
16:08 38.1 °F 16.4 °F 1010.7 in SW 13.0 mph 13.0 mph 28 % 0.0 in
16:13 38.2 °F 16.5 °F 1010.7 in WSW 13.0 mph 13.0 mph 28 % 0.0 in
16:18 37.9 °F 16.2 °F 1010.0 in SW 16.7 mph 16.7 mph 28 % 0.0 in
16:23 38.1 °F 16.4 °F 1010.0 in West 11.1 mph 11.1 mph 28 % 0.0 in
16:28 37.6 °F 16.0 °F 1010.0 in SW 14.8 mph 14.8 mph 28 % 0.0 in
16:33 38.0 °F 16.3 °F 1010.0 in SSE 9.3 mph 9.3 mph 28 % 0.0 in
16:38 38.3 °F 16.6 °F 1010.0 in South 9.3 mph 9.3 mph 28 % 0.0 in
16:43 38.3 °F 16.6 °F 1010.0 in SSW 10.0 mph 10.0 mph 28 % 0.0 in
16:48 38.1 °F 16.4 °F 1010.7 in SSW 9.7 mph 9.7 mph 28 % 0.0 in
16:53 38.0 °F 16.3 °F 1010.7 in WSW 7.4 mph 7.4 mph 28 % 0.0 in
16:58 38.0 °F 16.3 °F 1010.7 in WSW 11.1 mph 11.1 mph 28 % 0.0 in
17:00 38.1 °F 16.4 °F 1010.7 in SW 13.0 mph 13.0 mph 28 % 0.0 in
17:05 38.1 °F 16.4 °F 1010.0 in West 9.3 mph 9.3 mph 28 % 0.0 in
17:10 37.5 °F 15.9 °F 1010.0 in SW 9.3 mph 9.3 mph 28 % 0.0 in
17:15 37.6 °F 16.0 °F 1010.0 in South 7.4 mph 7.4 mph 28 % 0.0 in
17:20 37.7 °F 16.1 °F 1010.7 in ESE 6.1 mph 6.1 mph 28 % 0.0 in
17:25 36.8 °F 15.3 °F 1010.7 in WSW 5.6 mph 5.6 mph 28 % 0.0 in
17:30 37.2 °F 15.7 °F 1010.7 in SSW 13.0 mph 13.0 mph 28 % 0.0 in
17:35 37.2 °F 15.7 °F 1010.7 in North 6.1 mph 6.1 mph 28 % 0.0 in
17:40 36.0 °F 15.2 °F 1010.7 in North 5.6 mph 5.6 mph 29 % 0.0 in
17:45 36.0 °F 15.2 °F 1010.7 in SSE 9.3 mph 9.3 mph 29 % 0.0 in
17:50 35.6 °F 14.8 °F 1010.0 in West 7.9 mph 7.9 mph 29 % 0.0 in
17:55 35.9 °F 15.1 °F 1010.0 in NE 3.7 mph 3.7 mph 29 % 0.0 in
18:00 35.8 °F 15.0 °F 1010.0 in West 3.7 mph 3.7 mph 29 % 0.0 in
18:05 36.1 °F 15.3 °F 1010.7 in ENE 5.0 mph 5.0 mph 29 % 0.0 in
18:10 36.2 °F 15.3 °F 1010.7 in ENE 5.6 mph 5.6 mph 29 % 0.0 in
18:15 36.5 °F 15.6 °F 1010.7 in SW 7.4 mph 7.4 mph 29 % 0.0 in
18:20 36.5 °F 15.6 °F 1010.7 in SSW 3.7 mph 3.7 mph 29 % 0.0 in
18:25 35.4 °F 14.7 °F 1010.7 in South 3.9 mph 3.9 mph 29 % 0.0 in
18:30 35.8 °F 15.0 °F 1010.7 in SW 9.3 mph 9.3 mph 29 % 0.0 in
18:35 35.6 °F 14.8 °F 1010.7 in North 13.0 mph 13.0 mph 29 % 0.0 in
18:40 34.7 °F 15.1 °F 1010.7 in ENE 9.3 mph 9.3 mph 31 % 0.0 in
18:41 34.7 °F 15.1 °F 1010.7 in East 5.6 mph 5.6 mph 31 % 0.0 in
18:46 33.9 °F 15.4 °F 1010.7 in NE 5.6 mph 5.6 mph 33 % 0.0 in
18:51 33.7 °F 15.2 °F 1010.7 in SSE 4.7 mph 4.7 mph 33 % 0.0 in
18:56 33.6 °F 15.1 °F 1010.7 in ESE 5.6 mph 5.6 mph 33 % 0.0 in
19:01 33.2 °F 15.2 °F 1011.7 in East 11.4 mph 11.4 mph 34 % 0.0 in
19:06 32.9 °F 15.8 °F 1011.7 in ESE 9.3 mph 9.3 mph 36 % 0.0 in
19:11 32.7 °F 15.7 °F 1011.7 in SE 11.1 mph 11.1 mph 36 % 0.0 in
19:16 32.5 °F 15.9 °F 1011.7 in ENE 3.7 mph 3.7 mph 37 % 0.0 in
19:21 32.5 °F 15.9 °F 1011.7 in East 3.7 mph 3.7 mph 37 % 0.0 in
19:25 26.2 °F 18.6 °F 1013.8 in Calm   1.6 mph 63 % 0.0 in
19:26 32.5 °F 15.9 °F 1011.7 in WSW 7.4 mph 7.4 mph 37 % 0.0 in
19:31 32.8 °F 16.2 °F 1011.7 in South 5.3 mph 5.3 mph 37 % 0.0 in
19:35 26.1 °F 18.5 °F 1013.8 in Calm     63 % 0.0 in
19:36 32.9 °F 16.3 °F 1011.7 in SW 5.6 mph 5.6 mph 37 % 0.0 in
19:41 32.9 °F 16.3 °F 1011.7 in SW 3.7 mph 3.7 mph 37 % 0.0 in
19:45 26.0 °F 18.7 °F 1013.8 in West 1.6 mph 3.2 mph 64 % 0.0 in
19:46 33.1 °F 16.1 °F 1011.7 in WSW 7.4 mph 7.4 mph 36 % 0.0 in
19:51 32.9 °F 16.3 °F 1011.7 in NE 7.4 mph 7.4 mph 37 % 0.0 in
19:55 25.8 °F 18.2 °F 1013.8 in Calm   1.6 mph 63 % 0.0 in
19:56 32.2 °F 16.1 °F 1011.7 in South 5.6 mph 5.6 mph 38 % 0.0 in
20:01 31.5 °F 15.9 °F 1011.7 in ENE 5.6 mph 5.6 mph 39 % 0.0 in
20:05 25.6 °F 18.1 °F 1013.8 in Calm   3.2 mph 63 % 0.0 in
20:06 31.1 °F 15.9 °F 1011.7 in NE 4.2 mph 4.2 mph 40 % 0.0 in
20:11 30.8 °F 16.4 °F 1011.7 in ENE 7.4 mph 7.4 mph 42 % 0.0 in
20:15 25.4 °F 17.8 °F 1013.8 in SW 1.6 mph 3.2 mph 63 % 0.0 in
20:16 30.4 °F 16.4 °F 1011.7 in ENE 9.3 mph 9.3 mph 43 % 0.0 in
20:21 30.1 °F 16.5 °F 1011.7 in NE 11.1 mph 11.1 mph 44 % 0.0 in
20:25 25.3 °F 18.0 °F 1013.8 in Calm   1.6 mph 64 % 0.0 in
20:26 30.0 °F 16.8 °F 1011.7 in ESE 9.3 mph 9.3 mph 45 % 0.0 in
20:31 29.8 °F 16.9 °F 1010.7 in ESE 7.4 mph 7.4 mph 46 % 0.0 in
20:35 25.2 °F 18.2 °F 1014.8 in WSW 1.6 mph 3.2 mph 65 % 0.0 in
20:36 29.7 °F 16.8 °F 1010.7 in East 9.3 mph 9.3 mph 46 % 0.0 in
20:41 29.6 °F 17.1 °F 1010.7 in East 9.3 mph 9.3 mph 47 % 0.0 in
20:45 25.1 °F 17.8 °F 1014.8 in WSW 3.2 mph 3.2 mph 64 % 0.0 in
20:46 29.4 °F 17.2 °F 1011.7 in NNE 9.3 mph 9.3 mph 48 % 0.0 in
20:51 29.2 °F 17.1 °F 1011.7 in ENE 11.1 mph 11.1 mph 48 % 0.0 in
20:55 24.9 °F 18.1 °F 1013.8 in SW 1.6 mph 3.2 mph 66 % 0.0 in
20:56 29.1 °F 17.3 °F 1011.7 in ESE 9.3 mph 9.3 mph 49 % 0.0 in
21:01 28.9 °F 17.7 °F 1011.7 in ENE 7.4 mph 7.4 mph 51 % 0.0 in
21:05 24.8 °F 18.0 °F 1013.8 in SW 1.6 mph 3.2 mph 66 % 0.0 in
21:06 28.8 °F 17.7 °F 1011.7 in ENE 9.3 mph 9.3 mph 51 % 0.0 in
21:11 28.6 °F 17.8 °F 1011.7 in NE 9.3 mph 9.3 mph 52 % 0.0 in
21:15 24.8 °F 18.3 °F 1013.8 in WSW 1.6 mph 1.6 mph 67 % 0.0 in
21:16 28.6 °F 18.1 °F 1011.7 in East 9.3 mph 9.3 mph 53 % 0.0 in
21:21 28.4 °F 17.9 °F 1011.7 in ESE 7.4 mph 7.4 mph 53 % 0.0 in
21:25 24.8 °F 18.3 °F 1013.8 in SW 1.6 mph 3.2 mph 67 % 0.0 in
21:26 28.3 °F 18.4 °F 1011.7 in ENE 7.6 mph 7.6 mph 55 % 0.0 in
21:31 28.1 °F 18.2 °F 1011.7 in East 9.3 mph 9.3 mph 55 % 0.0 in
21:35 24.7 °F 18.4 °F 1013.8 in WSW 1.6 mph 3.2 mph 68 % 0.0 in
21:36 28.1 °F 18.5 °F 1011.7 in NE 7.4 mph 7.4 mph 56 % 0.0 in
21:41 28.0 °F 18.4 °F 1011.7 in East 9.3 mph 9.3 mph 56 % 0.0 in
21:45 24.5 °F 18.2 °F 1013.8 in Calm     68 % 0.0 in
21:46 27.9 °F 18.6 °F 1012.8 in ESE 9.3 mph 9.3 mph 57 % 0.0 in
21:51 27.8 °F 18.5 °F 1012.8 in ENE 7.4 mph 7.4 mph 57 % 0.0 in
21:55 24.5 °F 18.2 °F 1013.8 in Calm   1.6 mph 68 % 0.0 in
21:56 27.7 °F 18.7 °F 1012.8 in East 9.3 mph 9.3 mph 58 % 0.0 in
22:01 27.7 °F 18.7 °F 1013.8 in ESE 9.0 mph 9.0 mph 58 % 0.0 in
22:05 24.4 °F 18.3 °F 1012.8 in Calm     69 % 0.0 in
22:06 27.6 °F 18.9 °F 1013.8 in East 7.4 mph 7.4 mph 59 % 0.0 in
22:11 27.5 °F 18.5 °F 1013.8 in East 5.6 mph 5.6 mph 58 % 0.0 in
22:15 24.3 °F 18.0 °F 1012.8 in Calm   3.2 mph 68 % 0.0 in
22:16 27.5 °F 19.1 °F 1013.8 in ESE 9.3 mph 9.3 mph 60 % 0.0 in
22:21 27.4 °F 18.9 °F 1013.8 in East 5.8 mph 5.8 mph 60 % 0.0 in
22:25 24.3 °F 18.2 °F 1013.8 in Calm   1.6 mph 69 % 0.0 in
22:26 27.4 °F 18.9 °F 1013.8 in ENE 6.4 mph 6.4 mph 60 % 0.0 in
22:31 27.3 °F 18.8 °F 1013.8 in ENE 6.1 mph 6.1 mph 60 % 0.0 in
22:35 24.3 °F 18.2 °F 1013.8 in Calm     69 % 0.0 in
22:36 27.3 °F 18.8 °F 1013.8 in East 5.8 mph 5.8 mph 60 % 0.0 in
22:41 27.2 °F 18.8 °F 1013.8 in ENE 5.6 mph 5.6 mph 60 % 0.0 in
22:45 24.2 °F 18.2 °F 1013.8 in Calm     69 % 0.0 in
22:46 27.2 °F 19.0 °F 1013.8 in ESE 3.7 mph 3.7 mph 61 % 0.0 in
22:50 24.3 °F 18.5 °F 1013.8 in Calm     70 % 0.0 in
22:51 27.1 °F 18.9 °F 1013.8 in East 3.9 mph 3.9 mph 61 % 0.0 in
22:56 27.1 °F 18.9 °F 1013.8 in East 5.6 mph 5.6 mph 61 % 0.0 in
23:00 24.4 °F 18.6 °F 1013.8 in Calm     70 % 0.0 in
23:01 27.1 °F 18.9 °F 1013.8 in East 3.7 mph 3.7 mph 61 % 0.0 in
23:06 27.0 °F 18.8 °F 1013.8 in ESE 1.9 mph   61 % 0.0 in
23:10 24.1 °F 18.1 °F 1013.8 in Calm   1.6 mph 69 % 0.0 in
23:11 27.0 °F 18.6 °F 1013.8 in WSW 5.3 mph 5.3 mph 60 % 0.0 in
23:16 26.9 °F 18.7 °F 1013.8 in WSW 3.7 mph 3.7 mph 61 % 0.0 in
23:20 23.7 °F 18.1 °F 1013.8 in SW 1.6 mph 3.2 mph 71 % 0.0 in
23:21 26.8 °F 18.9 °F 1013.8 in SW 1.9 mph   62 % 0.0 in
23:22 26.8 °F 18.9 °F 1013.8 in SW 2.3 mph 2.3 mph 62 % 0.0 in
23:27 26.7 °F 18.8 °F 1013.8 in WSW 1.9 mph 1.9 mph 62 % 0.0 in
23:30 23.7 °F 18.1 °F 1013.8 in Calm   1.6 mph 71 % 0.0 in
23:32 26.7 °F 18.8 °F 1013.8 in SW 1.9 mph 1.9 mph 62 % 0.0 in
23:37 26.6 °F 18.7 °F 1013.8 in SW 1.9 mph 2.6 mph 62 % 0.0 in
23:40 23.8 °F 18.2 °F 1013.8 in WSW 1.6 mph 3.2 mph 71 % 0.0 in
23:42 26.5 °F 18.6 °F 1013.8 in WSW 1.9 mph   62 % 0.0 in
23:47 26.5 °F 18.9 °F 1013.8 in SW 3.5 mph 3.5 mph 63 % 0.0 in
23:50 23.8 °F 18.2 °F 1013.8 in Calm   3.2 mph 71 % 0.0 in
23:52 26.4 °F 18.8 °F 1013.8 in Calm     63 % 0.0 in
23:57 26.4 °F 18.8 °F 1013.8 in SW 3.7 mph 3.7 mph 63 % 0.0 in
Meteo Sesrovires
Elogis d' Weather Underground - 1.5 mb

Guio original per  Jim McMurry - jmcmurry@mwt.net Adaptat per a la plantilla per  Wim van der Kuil - Leuven-Template.eu

Trobareu la nostra informacio del temps tambe a:

Weather Underground

AWEKAS